To NAV CANADA Home Page Login to a new session Search on AWWS site Disclaimer Vers la page française équivalente Tips FAQ What's new on the site To the Forecasts and Observations / NOTAM section To "File a Flight Plan" website Publications and other links Update of the User's profile FIC Telephone Numbers My Weather Data Folder Route Weather Data Regional Weather Data Local Weather Data To the Forecasts and Observations / NOTAM section
Request Generated 11/13/2018 at 18:03:39 UTC . Weather information available at that time is displayed.

METAR/TAF

FORT NELSON/BC    

METAR CYYE 131800Z 00000KT 8SM FEW170 OVC250 M10/M12 A2975 RMK AC1CI8 AC TR SLP105=
METAR CYYE 131700Z 19002KT 30SM FEW150 BKN250 M12/M13 A2978 RMK AC1CI6 SLP116=
METAR CYYE 131600Z 36003KT 20SM SCT100 BKN250 M11/M13 A2980 RMK AC3CI4 SLP121=

TAF CYYE 131238Z 1313/1401 VRB03KT P6SM SCT130
FM132000 30005KT P6SM BKN120
RMK NXT FCST BY 131900Z=
Your time UTC time
Weather data provided by Environment Canada and NAV CANADA